Time;durP1;ratioP1;P1;durP2;ratioP2;P2;SDS_P1;SDS_P2;PMS_P1;PMS_P2;Temp;Humidity;BMP_temperature;BMP_pressure;BME280_temperature;BME280_humidity;BME280_pressure;Samples;Min_cycle;Max_cycle;Signal;HPM_P1;HPM_P2
2022/03/29 00:00:57;;;;;;;17.10;14.60;;;13.40;45.50;;;;;;5135614;27;20767;-58
2022/03/29 00:03:24;;;;;;;15.98;14.32;;;13.30;46.00;;;;;;5135585;27;20234;-58
2022/03/29 00:05:51;;;;;;;17.50;14.93;;;13.20;46.10;;;;;;5135310;27;20237;-58
2022/03/29 00:08:19;;;;;;;17.52;13.52;;;13.20;45.90;;;;;;5121621;27;20202;-58
2022/03/29 00:10:46;;;;;;;15.43;13.80;;;13.20;46.00;;;;;;5113595;27;20306;-57
2022/03/29 00:13:13;;;;;;;17.42;14.50;;;13.30;46.00;;;;;;5113932;28;20306;-57
2022/03/29 00:15:40;;;;;;;17.08;14.32;;;13.20;46.00;;;;;;5133273;27;20281;-57
2022/03/29 00:18:07;;;;;;;17.25;14.18;;;13.20;45.80;;;;;;5134721;27;20649;-57
2022/03/29 00:20:34;;;;;;;17.23;14.60;;;13.20;45.90;;;;;;5134433;27;20203;-57
2022/03/29 00:23:01;;;;;;;16.88;14.30;;;13.20;45.90;;;;;;5134349;27;20701;-56
2022/03/29 00:25:30;;;;;;;19.50;14.32;;;13.10;46.00;;;;;;5132903;27;20217;-57
2022/03/29 00:27:56;;;;;;;15.68;14.13;;;13.00;46.10;;;;;;5135115;27;20294;-57
2022/03/29 00:30:23;;;;;;;18.98;14.70;;;13.00;46.30;;;;;;5134862;27;20313;-57
2022/03/29 00:32:50;;;;;;;19.85;14.82;;;13.00;46.20;;;;;;5135013;27;20203;-57
2022/03/29 00:35:17;;;;;;;18.35;14.48;;;12.90;46.30;;;;;;5134702;27;20669;-57
2022/03/29 00:37:45;;;;;;;16.55;13.40;;;12.90;46.40;;;;;;5134954;27;20294;-57
2022/03/29 00:40:13;;;;;;;16.23;14.50;;;12.80;46.60;;;;;;5133322;27;20661;-57
2022/03/29 00:42:42;;;;;;;16.58;13.70;;;12.80;46.80;;;;;;5133841;27;20315;-57
2022/03/29 00:45:10;;;;;;;17.95;14.52;;;12.70;46.90;;;;;;5134680;27;20210;-57
2022/03/29 00:47:37;;;;;;;17.67;14.85;;;12.80;47.10;;;;;;5134682;27;20452;-57
2022/03/29 00:50:04;;;;;;;17.08;14.55;;;12.90;46.60;;;;;;5134455;27;20241;-57
2022/03/29 00:52:31;;;;;;;27.65;16.35;;;12.90;46.60;;;;;;5134614;27;20215;-57
2022/03/29 00:54:59;;;;;;;16.70;14.25;;;12.80;46.10;;;;;;5134063;27;20206;-57
2022/03/29 00:57:29;;;;;;;16.73;14.55;;;12.80;46.30;;;;;;5134089;27;20206;-57
2022/03/29 00:59:58;;;;;;;17.33;14.10;;;12.60;46.40;;;;;;5134563;27;20286;-57
2022/03/29 01:02:25;;;;;;;15.45;13.73;;;12.70;46.50;;;;;;5134333;27;20255;-57
2022/03/29 01:04:52;;;;;;;17.90;15.45;;;12.60;46.70;;;;;;5134241;27;20679;-57
2022/03/29 01:07:20;;;;;;;16.13;14.43;;;12.50;46.80;;;;;;5134256;27;20198;-58
2022/03/29 01:09:46;;;;;;;16.83;14.75;;;12.40;47.00;;;;;;5134426;27;20222;-57
2022/03/29 01:12:15;;;;;;;15.43;13.88;;;12.40;46.80;;;;;;5133038;27;20213;-57
2022/03/29 01:14:43;;;;;;;18.17;14.55;;;12.40;46.60;;;;;;5134255;27;20202;-57
2022/03/29 01:19:59;;;;;;;15.90;14.30;;;12.40;46.70;;;;;;5134147;27;20206;-57
2022/03/29 01:22:29;;;;;;;18.85;14.52;;;12.40;46.80;;;;;;5134049;27;20733;-57
2022/03/29 01:24:57;;;;;;;18.80;14.40;;;12.40;46.70;;;;;;5134043;27;20198;-57
2022/03/29 01:27:25;;;;;;;16.77;13.27;;;12.60;46.30;;;;;;5133129;27;20229;-57
2022/03/29 01:29:56;;;;;;;15.38;13.75;;;12.70;45.90;;;;;;5133927;27;20223;-57
2022/03/29 01:32:27;;;;;;;16.58;14.93;;;12.60;46.30;;;;;;5133959;27;20200;-57
2022/03/29 01:34:54;;;;;;;21.05;14.95;;;12.50;46.50;;;;;;5133818;27;20297;-57
2022/03/29 01:37:21;;;;;;;16.73;13.77;;;12.40;46.60;;;;;;5134011;27;20554;-57
2022/03/29 01:39:49;;;;;;;16.27;14.35;;;12.30;46.70;;;;;;5133938;27;20673;-57
2022/03/29 01:42:19;;;;;;;16.85;13.57;;;12.20;46.80;;;;;;5132316;27;20234;-57
2022/03/29 01:44:46;;;;;;;18.58;15.02;;;12.20;46.70;;;;;;5133884;27;20194;-57
2022/03/29 01:47:13;;;;;;;16.38;14.48;;;12.20;46.60;;;;;;5133766;27;20285;-57
2022/03/29 01:49:40;;;;;;;18.73;14.05;;;12.20;46.70;;;;;;5133636;27;20207;-57
2022/03/29 01:52:08;;;;;;;16.05;14.40;;;12.20;46.70;;;;;;5133730;27;20679;-57
2022/03/29 01:54:35;;;;;;;16.38;14.63;;;12.20;46.60;;;;;;5136523;27;20209;-57
2022/03/29 01:57:03;;;;;;;16.85;14.30;;;12.20;46.80;;;;;;5136756;27;20208;-57
2022/03/29 02:00:30;;;;;;;16.33;14.63;;;12.20;46.50;;;;;;5137814;27;20222;-57
2022/03/29 02:02:17;;;;;;;16.33;14.68;;;12.20;46.40;;;;;;5137720;27;20224;-57
2022/03/29 02:04:44;;;;;;;17.67;14.70;;;12.20;46.50;;;;;;5137688;27;20748;-57
2022/03/29 02:07:11;;;;;;;16.02;14.13;;;12.20;46.50;;;;;;5129692;27;20195;-57
2022/03/29 02:09:38;;;;;;;17.85;15.45;;;12.20;46.30;;;;;;5132833;27;20610;-57
2022/03/29 02:12:07;;;;;;;15.85;14.23;;;12.20;46.30;;;;;;5136328;27;20205;-57
2022/03/29 02:14:35;;;;;;;18.73;14.73;;;12.20;46.00;;;;;;5137654;27;20198;-57
2022/03/29 02:17:02;;;;;;;20.35;15.50;;;12.20;45.80;;;;;;5137556;27;20680;-57
2022/03/29 02:19:29;;;;;;;18.95;14.13;;;12.20;45.70;;;;;;5137578;27;20661;-57
2022/03/29 02:21:56;;;;;;;16.52;14.93;;;12.20;45.70;;;;;;5137307;27;20226;-57
2022/03/29 02:24:23;;;;;;;16.13;14.40;;;12.10;45.70;;;;;;5137343;27;20657;-57
2022/03/29 02:26:50;;;;;;;17.13;14.68;;;12.20;45.70;;;;;;5136071;27;20235;-57
2022/03/29 02:29:18;;;;;;;20.10;14.93;;;12.20;45.40;;;;;;5137364;27;20598;-57
2022/03/29 02:31:45;;;;;;;21.42;15.77;;;12.30;45.30;;;;;;5137408;27;20310;-57
2022/03/29 02:34:12;;;;;;;18.33;15.18;;;12.40;45.10;;;;;;5137215;27;20198;-57
2022/03/29 02:36:39;;;;;;;17.55;14.68;;;12.40;44.80;;;;;;5137195;27;20293;-57
2022/03/29 02:39:06;;;;;;;20.08;14.80;;;12.50;44.90;;;;;;5137117;27;20283;-57
2022/03/29 02:41:33;;;;;;;17.10;15.07;;;12.50;45.10;;;;;;5135766;27;20566;-57
2022/03/29 02:44:00;;;;;;;16.42;14.77;;;12.40;45.10;;;;;;5137140;27;20213;-57
2022/03/29 02:46:28;;;;;;;15.38;13.85;;;12.30;44.80;;;;;;5137058;27;20231;-57
2022/03/29 02:48:55;;;;;;;16.45;14.65;;;12.20;45.10;;;;;;5136954;27;20234;-57
2022/03/29 02:51:21;;;;;;;16.35;14.65;;;12.10;45.50;;;;;;5136820;27;20199;-57
2022/03/29 02:53:48;;;;;;;20.65;14.80;;;11.90;45.90;;;;;;5136845;27;20209;-57
2022/03/29 02:56:15;;;;;;;16.88;15.13;;;11.80;46.00;;;;;;5135545;27;20649;-58
2022/03/29 02:58:42;;;;;;;19.23;15.57;;;11.70;46.50;;;;;;5136870;27;20237;-57
2022/03/29 03:01:09;;;;;;;17.08;14.63;;;11.70;46.50;;;;;;5136801;27;20244;-57
2022/03/29 03:03:37;;;;;;;15.10;13.57;;;11.60;46.80;;;;;;5136716;27;20317;-57
2022/03/29 03:06:04;;;;;;;17.52;14.52;;;11.50;46.80;;;;;;5135744;27;20290;-57
2022/03/29 03:08:31;;;;;;;17.30;14.40;;;11.60;46.70;;;;;;5136575;27;20202;-57
2022/03/29 03:10:58;;;;;;;14.85;13.20;;;11.70;46.40;;;;;;5135287;27;20572;-57
2022/03/29 03:13:25;;;;;;;20.00;15.85;;;11.80;46.40;;;;;;5136501;27;20669;-57
2022/03/29 03:15:52;;;;;;;16.35;14.50;;;11.80;46.10;;;;;;5136622;27;20203;-57
2022/03/29 03:18:19;;;;;;;17.20;15.40;;;11.90;46.00;;;;;;5136589;27;20298;-57
2022/03/29 03:20:47;;;;;;;19.70;16.38;;;11.80;46.60;;;;;;5136360;27;20628;-57
2022/03/29 03:23:14;;;;;;;15.88;14.10;;;11.70;46.70;;;;;;5136177;27;20230;-57
2022/03/29 03:25:41;;;;;;;16.98;14.13;;;11.70;46.80;;;;;;5134885;27;20222;-57
2022/03/29 03:28:08;;;;;;;17.38;14.68;;;11.70;46.80;;;;;;5136223;27;20696;-57
2022/03/29 03:30:35;;;;;;;15.95;14.25;;;11.70;46.80;;;;;;5136150;27;20325;-57
2022/03/29 03:33:02;;;;;;;17.48;15.77;;;11.60;46.80;;;;;;5136120;27;20289;-57
2022/03/29 03:35:29;;;;;;;17.00;14.85;;;11.50;47.10;;;;;;5136031;27;20640;-57
2022/03/29 03:37:57;;;;;;;16.30;14.63;;;11.50;47.40;;;;;;5135811;27;20203;-57
2022/03/29 03:40:24;;;;;;;17.85;14.70;;;11.50;47.40;;;;;;5134665;27;20249;-57
2022/03/29 03:42:51;;;;;;;18.80;16.60;;;11.40;47.50;;;;;;5136112;27;20240;-57
2022/03/29 03:45:18;;;;;;;16.48;14.82;;;11.40;47.70;;;;;;5135905;27;20222;-57
2022/03/29 03:47:46;;;;;;;21.52;14.52;;;11.50;47.60;;;;;;5135858;27;20281;-57
2022/03/29 03:50:13;;;;;;;15.30;13.80;;;11.40;47.70;;;;;;5135619;27;20541;-57
2022/03/29 03:52:40;;;;;;;16.05;14.35;;;11.40;47.90;;;;;;5135561;27;20203;-57
2022/03/29 03:55:09;;;;;;;16.73;15.02;;;11.40;48.10;;;;;;5134517;27;20209;-57
2022/03/29 03:57:36;;;;;;;17.30;14.52;;;11.30;48.40;;;;;;5135695;27;20202;-58
2022/03/29 04:00:04;;;;;;;15.18;13.45;;;11.20;49.00;;;;;;5135538;27;20221;-57
2022/03/29 04:02:30;;;;;;;16.55;14.30;;;11.30;49.80;;;;;;5135376;27;20222;-57
2022/03/29 04:04:57;;;;;;;15.18;13.57;;;11.30;49.70;;;;;;5135655;27;20757;-57
2022/03/29 04:07:24;;;;;;;16.67;15.23;;;11.50;49.30;;;;;;5135350;27;20297;-57
2022/03/29 04:09:51;;;;;;;16.63;13.57;;;11.70;49.40;;;;;;5135474;27;20203;-57
2022/03/29 04:12:19;;;;;;;17.27;15.55;;;11.70;49.60;;;;;;5134077;27;20199;-57
2022/03/29 04:14:46;;;;;;;17.27;14.63;;;11.70;49.10;;;;;;5135214;27;20203;-57
2022/03/29 04:17:13;;;;;;;17.52;15.70;;;12.00;48.60;;;;;;5135141;27;20209;-57
2022/03/29 04:19:40;;;;;;;16.95;15.18;;;12.10;48.30;;;;;;5135314;27;20198;-57
2022/03/29 04:22:07;;;;;;;19.30;15.13;;;12.20;48.20;;;;;;5134928;27;20202;-57
2022/03/29 04:24:34;;;;;;;17.35;14.77;;;12.30;48.00;;;;;;5135042;27;20649;-57
2022/03/29 04:27:01;;;;;;;17.30;14.77;;;12.30;48.10;;;;;;5133654;27;20206;-57
2022/03/29 04:29:29;;;;;;;16.23;14.55;;;12.30;48.20;;;;;;5134925;27;20684;-57
2022/03/29 04:31:56;;;;;;;18.52;16.02;;;12.40;47.80;;;;;;5134901;27;20252;-57
2022/03/29 04:34:23;;;;;;;17.40;13.40;;;12.40;48.00;;;;;;5134982;27;20210;-57
2022/03/29 04:36:50;;;;;;;22.67;16.02;;;12.40;47.90;;;;;;5134747;27;20206;-57
2022/03/29 04:39:17;;;;;;;20.15;16.75;;;12.40;48.00;;;;;;5134987;27;20379;-57
2022/03/29 04:41:44;;;;;;;17.67;15.65;;;12.30;48.50;;;;;;5133504;27;20652;-57
2022/03/29 04:44:11;;;;;;;18.55;16.25;;;12.20;48.80;;;;;;5134663;27;20230;-57
2022/03/29 04:46:39;;;;;;;19.88;14.80;;;12.30;48.70;;;;;;5134579;27;20226;-57
2022/03/29 04:49:06;;;;;;;17.08;15.27;;;12.30;49.20;;;;;;5134595;27;20221;-57
2022/03/29 04:51:35;;;;;;;16.95;14.23;;;12.30;49.80;;;;;;5134606;27;20195;-57
2022/03/29 04:54:02;;;;;;;16.88;14.60;;;12.20;50.00;;;;;;5134820;27;20325;-57
2022/03/29 04:56:29;;;;;;;18.33;14.07;;;12.10;50.10;;;;;;5133187;27;20198;-57
2022/03/29 04:58:56;;;;;;;18.85;16.50;;;12.20;49.80;;;;;;5134280;27;20203;-57
2022/03/29 05:01:23;;;;;;;18.20;15.00;;;12.30;49.70;;;;;;5134364;27;20660;-57
2022/03/29 05:03:51;;;;;;;17.38;15.43;;;12.40;49.30;;;;;;5134501;27;20325;-57
2022/03/29 05:06:18;;;;;;;17.10;15.35;;;12.40;49.10;;;;;;5134107;27;20207;-57
2022/03/29 05:08:45;;;;;;;17.13;15.32;;;12.40;49.10;;;;;;5134382;27;20225;-57
2022/03/29 05:11:12;;;;;;;20.05;14.77;;;12.40;48.90;;;;;;5132975;27;20216;-57
2022/03/29 05:13:39;;;;;;;20.50;15.20;;;12.30;49.10;;;;;;5134134;27;20210;-57
2022/03/29 05:16:06;;;;;;;18.77;16.85;;;12.40;49.10;;;;;;5134175;27;20202;-57
2022/03/29 05:18:33;;;;;;;17.65;15.85;;;12.40;48.90;;;;;;5134197;27;20311;-57
2022/03/29 05:21:01;;;;;;;19.42;15.27;;;12.40;48.90;;;;;;5134137;27;20195;-57
2022/03/29 05:23:28;;;;;;;15.80;13.30;;;12.30;48.80;;;;;;5134035;27;20650;-57
2022/03/29 05:25:55;;;;;;;16.88;14.73;;;12.40;48.90;;;;;;5132583;27;20225;-57
2022/03/29 05:28:22;;;;;;;16.67;14.30;;;12.50;49.50;;;;;;5133426;27;20310;-57
2022/03/29 05:30:49;;;;;;;24.17;14.30;;;12.40;49.50;;;;;;5133811;27;20235;-57
2022/03/29 05:33:18;;;;;;;30.42;21.77;;;12.40;49.50;;;;;;5133983;27;20202;-57
2022/03/29 05:35:45;;;;;;;18.75;15.57;;;12.30;49.10;;;;;;5133839;27;20195;-57
2022/03/29 05:38:13;;;;;;;18.92;15.73;;;12.30;49.10;;;;;;5133691;27;20234;-57
2022/03/29 05:40:40;;;;;;;21.90;15.48;;;12.30;49.00;;;;;;5132240;27;20542;-57
2022/03/29 05:43:11;;;;;;;17.55;15.75;;;12.30;48.80;;;;;;5133875;27;20222;-57
2022/03/29 05:45:38;;;;;;;18.20;16.25;;;12.40;48.70;;;;;;5133725;27;20205;-57
2022/03/29 05:50:50;;;;;;;25.67;18.75;;;12.60;48.40;;;;;;5133802;28;20222;-57
2022/03/29 05:53:19;;;;;;;22.83;15.90;;;12.40;48.90;;;;;;5133515;27;20203;-57
2022/03/29 05:55:48;;;;;;;20.00;17.35;;;12.20;49.50;;;;;;5132416;27;20209;-57
2022/03/29 05:58:17;;;;;;;21.27;15.52;;;11.90;49.90;;;;;;5133920;27;20207;-57
2022/03/29 06:00:44;;;;;;;20.60;16.40;;;11.70;50.60;;;;;;5133580;27;20194;-57
2022/03/29 06:03:11;;;;;;;17.38;15.52;;;11.70;50.90;;;;;;5133507;27;20717;-57
2022/03/29 06:05:41;;;;;;;18.00;13.82;;;11.60;51.00;;;;;;5133480;27;20210;-57
2022/03/29 06:08:09;;;;;;;17.92;16.08;;;11.70;50.80;;;;;;5133377;27;20653;-57
2022/03/29 06:10:38;;;;;;;22.02;16.35;;;11.60;50.70;;;;;;5132077;27;20661;-57
2022/03/29 06:13:08;;;;;;;21.40;16.85;;;11.50;50.80;;;;;;5133473;27;20230;-57
2022/03/29 06:15:35;;;;;;;18.48;16.67;;;11.40;51.10;;;;;;5133510;27;20536;-57
2022/03/29 06:18:03;;;;;;;23.02;17.02;;;11.30;51.20;;;;;;5133568;27;20293;-56
2022/03/29 06:20:30;;;;;;;18.75;16.75;;;11.40;51.70;;;;;;5133421;27;20207;-57
2022/03/29 06:22:57;;;;;;;18.23;16.38;;;11.40;51.70;;;;;;5133235;27;20290;-57
2022/03/29 06:25:24;;;;;;;21.17;16.63;;;11.40;51.50;;;;;;5131981;27;20233;-58
2022/03/29 06:27:52;;;;;;;20.77;17.48;;;11.50;51.30;;;;;;5133320;27;20199;-57
2022/03/29 06:30:19;;;;;;;25.27;19.45;;;11.60;51.50;;;;;;5133247;27;20245;-59
2022/03/29 06:32:47;;;;;;;21.63;17.67;;;11.70;50.80;;;;;;5133156;27;20203;-58
2022/03/29 06:35:14;;;;;;;25.33;20.38;;;11.80;50.80;;;;;;5133284;27;20244;-58
2022/03/29 06:37:41;;;;;;;23.92;19.30;;;11.90;50.90;;;;;;5132996;27;20291;-59
2022/03/29 06:40:10;;;;;;;22.00;18.88;;;11.80;50.70;;;;;;5132189;27;20203;-59
2022/03/29 06:42:37;;;;;;;22.42;18.30;;;11.80;50.80;;;;;;5136999;27;20645;-57
2022/03/29 06:45:07;;;;;;;22.63;17.17;;;11.80;50.90;;;;;;5136899;27;20238;-58
2022/03/29 06:47:34;;;;;;;19.70;16.70;;;11.90;50.90;;;;;;5136799;27;20617;-57
2022/03/29 06:50:03;;;;;;;20.20;16.90;;;12.00;51.10;;;;;;5136936;27;20237;-58
2022/03/29 06:52:35;;;;;;;20.42;17.23;;;12.10;50.90;;;;;;5136771;27;20259;-57
2022/03/29 06:55:01;;;;;;;22.60;18.30;;;12.10;50.70;;;;;;5136393;27;20305;-59
2022/03/29 06:57:28;;;;;;;23.33;18.20;;;12.10;50.40;;;;;;5136246;27;20564;-59
2022/03/29 06:59:56;;;;;;;24.52;16.70;;;12.10;50.60;;;;;;5136600;27;20199;-59
2022/03/29 07:02:24;;;;;;;25.38;18.10;;;12.00;50.90;;;;;;5136902;27;20560;-59
2022/03/29 07:04:51;;;;;;;21.02;18.35;;;12.10;50.80;;;;;;5136741;27;20226;-59
2022/03/29 07:07:18;;;;;;;28.33;18.63;;;12.10;51.20;;;;;;5136443;27;20209;-59
2022/03/29 07:12:26;;;;;;;23.63;17.13;;;12.30;51.30;;;;;;5112045;27;20722;-58
2022/03/29 07:14:53;;;;;;;27.48;19.65;;;12.40;51.40;;;;;;5136450;27;20208;-59
2022/03/29 07:17:20;;;;;;;20.40;18.20;;;12.40;51.90;;;;;;5136559;27;20625;-59
2022/03/29 07:19:48;;;;;;;21.63;17.60;;;12.40;51.30;;;;;;5136326;27;20625;-59
2022/03/29 07:22:16;;;;;;;20.08;17.85;;;12.50;50.90;;;;;;5136244;27;20230;-58
2022/03/29 07:24:43;;;;;;;18.73;16.73;;;12.60;50.70;;;;;;5136142;27;20239;-58
2022/03/29 07:27:10;;;;;;;20.98;16.60;;;12.60;51.30;;;;;;5134703;27;20195;-59
2022/03/29 07:29:38;;;;;;;20.65;16.90;;;12.60;50.30;;;;;;5135911;27;20262;-59
2022/03/29 07:32:06;;;;;;;19.88;16.40;;;12.60;50.70;;;;;;5136154;27;20203;-59
2022/03/29 07:34:35;;;;;;;23.63;17.95;;;12.70;50.50;;;;;;5136366;27;20199;-59
2022/03/29 07:37:03;;;;;;;21.05;17.52;;;12.70;50.60;;;;;;5135827;27;20596;-59
2022/03/29 07:39:30;;;;;;;20.60;16.70;;;12.90;50.10;;;;;;5135865;27;20650;-59
2022/03/29 07:41:57;;;;;;;19.67;17.50;;;13.10;50.30;;;;;;5134517;27;20214;-59
2022/03/29 07:44:24;;;;;;;21.75;18.25;;;13.30;49.00;;;;;;5135912;27;20317;-59
2022/03/29 07:46:51;;;;;;;17.90;15.40;;;13.50;49.40;;;;;;5135838;27;20206;-59
2022/03/29 07:49:18;;;;;;;18.13;15.27;;;13.70;49.30;;;;;;5135751;27;20238;-58
2022/03/29 07:51:45;;;;;;;19.90;17.23;;;13.90;49.10;;;;;;5135184;27;20205;-58
2022/03/29 07:54:13;;;;;;;19.48;17.35;;;14.10;48.70;;;;;;5135578;27;20205;-58
2022/03/29 07:56:40;;;;;;;22.60;17.60;;;14.20;48.80;;;;;;5134384;27;20207;-58
2022/03/29 07:59:07;;;;;;;17.35;15.18;;;14.30;49.40;;;;;;5135640;27;20203;-58
2022/03/29 08:01:34;;;;;;;21.58;18.77;;;14.40;49.00;;;;;;5135627;27;20237;-58
2022/03/29 08:04:01;;;;;;;18.90;15.95;;;14.30;48.10;;;;;;5135307;27;20764;-58
2022/03/29 08:06:27;;;;;;;17.48;15.52;;;14.20;49.10;;;;;;5135332;27;20289;-58
2022/03/29 08:08:54;;;;;;;23.08;17.40;;;14.00;48.50;;;;;;5135129;27;20222;-58
2022/03/29 08:11:23;;;;;;;18.10;16.25;;;14.10;48.70;;;;;;5133932;27;20195;-58
2022/03/29 08:13:50;;;;;;;20.00;17.52;;;13.80;47.00;;;;;;5135241;27;20218;-59
2022/03/29 08:16:17;;;;;;;19.00;17.00;;;13.90;48.40;;;;;;5135268;27;20209;-59
2022/03/29 08:18:44;;;;;;;17.65;15.90;;;13.90;47.80;;;;;;5135221;27;20633;-59
2022/03/29 08:23:51;;;;;;;18.17;16.20;;;14.40;48.10;;;;;;5134702;27;20313;-59
2022/03/29 08:26:18;;;;;;;17.63;15.82;;;14.70;48.00;;;;;;5133720;27;20203;-59
2022/03/29 08:28:47;;;;;;;19.60;15.52;;;14.90;47.80;;;;;;5134937;27;20202;-58
2022/03/29 08:31:14;;;;;;;18.90;17.10;;;14.90;47.20;;;;;;5134932;27;20297;-59
2022/03/29 08:33:41;;;;;;;20.45;18.35;;;14.80;47.70;;;;;;5134866;27;20211;-59
2022/03/29 08:36:08;;;;;;;19.15;16.83;;;14.90;48.00;;;;;;5134799;27;20202;-59
2022/03/29 08:38:35;;;;;;;21.42;17.50;;;15.10;47.80;;;;;;5134635;27;20205;-59
2022/03/29 08:41:02;;;;;;;20.67;17.85;;;15.20;47.60;;;;;;5133445;27;20290;-59
2022/03/29 08:43:30;;;;;;;22.95;17.90;;;15.30;47.70;;;;;;5134666;27;20207;-59
2022/03/29 08:46:00;;;;;;;23.08;19.55;;;15.50;47.50;;;;;;5134828;27;20203;-59
2022/03/29 08:48:29;;;;;;;25.88;19.52;;;15.60;47.70;;;;;;5134482;27;20249;-59
2022/03/29 08:50:58;;;;;;;19.55;17.55;;;15.70;47.70;;;;;;5134609;27;20562;-59
2022/03/29 08:53:28;;;;;;;22.38;17.63;;;15.70;47.60;;;;;;5134460;27;20198;-59
2022/03/29 08:55:55;;;;;;;21.35;18.25;;;15.70;47.40;;;;;;5133097;27;20209;-59
2022/03/29 08:58:23;;;;;;;21.08;18.55;;;15.60;47.80;;;;;;5134781;27;20198;-59
2022/03/29 09:00:50;;;;;;;20.55;18.40;;;15.80;47.50;;;;;;5134206;27;20203;-59
2022/03/29 09:03:19;;;;;;;21.90;19.08;;;15.90;47.10;;;;;;5133537;27;20542;-59
2022/03/29 09:05:48;;;;;;;22.30;19.67;;;15.90;47.00;;;;;;5134200;27;20227;-59
2022/03/29 09:08:16;;;;;;;23.98;20.33;;;16.00;46.90;;;;;;5134031;27;20677;-59
2022/03/29 09:10:48;;;;;;;25.77;19.65;;;16.00;46.60;;;;;;5132956;27;20333;-59
2022/03/29 09:13:20;;;;;;;24.50;20.38;;;16.10;46.60;;;;;;5134197;27;21038;-59
2022/03/29 09:15:48;;;;;;;30.38;21.02;;;16.20;46.60;;;;;;5134158;27;20213;-59
2022/03/29 09:18:15;;;;;;;26.43;18.30;;;16.20;46.30;;;;;;5134014;27;20573;-59
2022/03/29 09:20:44;;;;;;;22.93;19.07;;;16.30;46.20;;;;;;5134098;27;20849;-59
2022/03/29 09:23:15;;;;;;;24.27;19.90;;;16.40;46.40;;;;;;5133893;27;20521;-59
2022/03/29 09:25:47;;;;;;;26.15;19.88;;;16.50;46.10;;;;;;5132838;27;20527;-59
2022/03/29 09:28:15;;;;;;;20.98;18.33;;;16.60;45.60;;;;;;5133844;27;20661;-59
2022/03/29 09:30:43;;;;;;;21.70;19.50;;;16.70;45.00;;;;;;5133787;27;20330;-59
2022/03/29 09:33:12;;;;;;;25.60;19.40;;;16.70;45.10;;;;;;5134030;27;20290;-59
2022/03/29 09:35:56;;;;;;;21.47;19.27;;;16.70;44.70;;;;;;5133882;27;20509;-59
2022/03/29 09:38:26;;;;;;;23.03;18.67;;;16.80;44.70;;;;;;5133751;27;20440;-59
2022/03/29 09:40:55;;;;;;;20.60;18.00;;;16.90;44.70;;;;;;5132451;27;21014;-59
2022/03/29 09:43:23;;;;;;;21.77;18.60;;;17.00;44.70;;;;;;5133848;27;20448;-59
2022/03/29 09:45:52;;;;;;;22.37;18.73;;;17.10;44.60;;;;;;5133629;27;20492;-59
2022/03/29 09:48:28;;;;;;;23.07;18.30;;;17.20;44.80;;;;;;5133749;27;20458;-59
2022/03/29 09:50:57;;;;;;;22.27;19.90;;;17.30;43.70;;;;;;5133594;27;20531;-59
2022/03/29 09:53:35;;;;;;;21.73;19.53;;;17.40;43.40;;;;;;5133661;27;20535;-59
2022/03/29 09:56:02;;;;;;;20.10;17.73;;;17.40;43.50;;;;;;5132441;27;20547;-59
2022/03/29 09:58:30;;;;;;;21.57;19.03;;;17.40;43.50;;;;;;5133634;27;20806;-59
2022/03/29 10:00:57;;;;;;;22.80;19.73;;;17.40;43.00;;;;;;5133662;27;20569;-59
2022/03/29 10:03:26;;;;;;;27.50;20.03;;;17.40;43.90;;;;;;5133492;27;20973;-60
2022/03/29 10:06:01;;;;;;;21.07;18.93;;;17.50;43.60;;;;;;5133514;27;20496;-59
2022/03/29 10:11:18;;;;;;;20.30;18.30;;;17.80;42.90;;;;;;5132280;28;20439;-59
2022/03/29 10:13:46;;;;;;;20.30;18.20;;;17.80;42.10;;;;;;5133506;27;20436;-59
2022/03/29 10:16:14;;;;;;;23.40;19.73;;;17.80;42.00;;;;;;5137271;27;20526;-59
2022/03/29 10:18:42;;;;;;;19.17;16.80;;;17.80;41.90;;;;;;5137615;27;20559;-59
2022/03/29 10:21:13;;;;;;;21.23;17.90;;;17.90;42.20;;;;;;5137612;27;20452;-59
2022/03/29 10:23:44;;;;;;;23.47;18.33;;;18.00;41.80;;;;;;5137213;27;20463;-59
2022/03/29 10:26:16;;;;;;;18.57;16.63;;;18.10;42.00;;;;;;5136222;27;20852;-59
2022/03/29 10:28:43;;;;;;;19.43;17.47;;;18.30;41.70;;;;;;5137150;27;21193;-59
2022/03/29 10:31:30;;;;;;;22.17;19.77;;;18.40;41.30;;;;;;5137310;27;20927;-59
2022/03/29 10:34:16;;;;;;;21.53;19.30;;;18.40;41.60;;;;;;5137405;27;20439;-59
2022/03/29 10:37:17;;;;;;;20.80;18.20;;;18.60;40.90;;;;;;5137254;27;20773;-59
2022/03/29 10:39:56;;;;;;;21.00;17.33;;;18.50;41.80;;;;;;5137270;27;20542;-59
2022/03/29 10:42:31;;;;;;;22.67;19.10;;;18.50;41.60;;;;;;5136073;27;20448;-59
2022/03/29 10:45:09;;;;;;;20.53;18.33;;;18.70;41.40;;;;;;5136962;27;20483;-59
2022/03/29 10:47:36;;;;;;;22.77;18.80;;;18.80;40.90;;;;;;5136981;27;20444;-59
2022/03/29 10:50:05;;;;;;;21.13;17.57;;;18.90;40.40;;;;;;5137070;27;20877;-59
2022/03/29 10:52:38;;;;;;;18.90;17.00;;;19.00;40.50;;;;;;5136880;27;20532;-59
2022/03/29 10:55:31;;;;;;;20.97;18.73;;;19.00;39.60;;;;;;5136004;27;20447;-59
2022/03/29 10:58:11;;;;;;;19.40;17.50;;;19.10;39.80;;;;;;5121291;27;20452;-59
2022/03/29 11:00:40;;;;;;;21.70;19.30;;;19.10;38.90;;;;;;5136851;27;20467;-59
2022/03/29 11:03:11;;;;;;;19.70;16.97;;;19.10;39.60;;;;;;5136759;27;20476;-59
2022/03/29 11:06:11;;;;;;;21.00;19.00;;;19.20;38.90;;;;;;5136529;27;20579;-59
2022/03/29 11:08:40;;;;;;;19.20;17.23;;;19.30;39.20;;;;;;5136440;27;20444;-59
2022/03/29 11:11:29;;;;;;;21.00;18.97;;;19.10;41.00;;;;;;5135245;27;20451;-59
2022/03/29 11:13:56;;;;;;;21.30;18.40;;;18.90;40.60;;;;;;5136396;27;20444;-59
2022/03/29 11:16:50;;;;;;;23.33;19.20;;;19.10;38.70;;;;;;5136540;27;20442;-59
2022/03/29 11:19:43;;;;;;;20.50;18.30;;;19.10;38.60;;;;;;5136533;27;20436;-59
2022/03/29 11:22:24;;;;;;;20.63;18.20;;;19.40;39.60;;;;;;5136276;27;20468;-59
2022/03/29 11:24:52;;;;;;;21.27;19.07;;;19.70;37.80;;;;;;5136005;27;21143;-59
2022/03/29 11:27:23;;;;;;;21.87;19.60;;;20.00;37.80;;;;;;5134176;27;20495;-59
2022/03/29 11:29:50;;;;;;;17.03;15.17;;;20.30;39.30;;;;;;5136148;27;20468;-59
2022/03/29 11:32:17;;;;;;;19.77;17.97;;;20.50;38.10;;;;;;5136166;27;21053;-59
2022/03/29 11:34:45;;;;;;;23.50;20.57;;;20.90;37.00;;;;;;5136149;27;20450;-59
2022/03/29 11:37:27;;;;;;;20.30;18.17;;;21.30;36.80;;;;;;5135951;27;20451;-59
2022/03/29 11:39:54;;;;;;;22.23;20.00;;;21.50;35.60;;;;;;5136071;27;20569;-59
2022/03/29 11:42:22;;;;;;;22.13;19.83;;;21.60;35.30;;;;;;5134770;27;20482;-59
2022/03/29 11:44:51;;;;;;;21.33;19.13;;;21.60;35.20;;;;;;5135862;27;20484;-59
2022/03/29 11:47:18;;;;;;;21.57;19.53;;;21.60;35.40;;;;;;5135910;27;20448;-59
2022/03/29 11:49:48;;;;;;;21.33;19.13;;;21.60;35.50;;;;;;5135770;27;20789;-59
2022/03/29 11:52:17;;;;;;;22.60;18.27;;;21.60;35.10;;;;;;5135781;27;20927;-59
2022/03/29 11:54:46;;;;;;;20.83;18.87;;;21.50;34.90;;;;;;5135536;27;20536;-59
2022/03/29 11:57:18;;;;;;;24.47;20.03;;;21.40;35.20;;;;;;5134376;27;20444;-59
2022/03/29 11:59:47;;;;;;;23.07;20.57;;;21.40;34.90;;;;;;5135739;27;20444;-59
2022/03/29 12:02:14;;;;;;;24.00;20.93;;;21.20;35.40;;;;;;5135643;27;20508;-59
2022/03/29 12:04:41;;;;;;;21.43;19.33;;;21.00;35.20;;;;;;5135288;27;20615;-59
2022/03/29 12:07:08;;;;;;;21.03;18.73;;;21.00;35.90;;;;;;5135421;27;20954;-60
2022/03/29 12:09:35;;;;;;;22.87;20.33;;;21.00;35.40;;;;;;5135355;27;20511;-60
2022/03/29 12:12:03;;;;;;;23.77;20.80;;;20.60;37.40;;;;;;5134104;27;20444;-59
2022/03/29 12:14:31;;;;;;;25.30;20.03;;;20.60;36.40;;;;;;5135447;27;20436;-59
2022/03/29 12:17:04;;;;;;;20.57;18.43;;;20.50;36.20;;;;;;5135098;27;20441;-59
2022/03/29 12:19:32;;;;;;;21.93;19.60;;;20.40;36.90;;;;;;5135233;27;20471;-59
2022/03/29 12:22:02;;;;;;;21.60;19.23;;;20.40;36.80;;;;;;5135112;27;20492;-59
2022/03/29 12:24:33;;;;;;;23.53;21.07;;;20.40;37.00;;;;;;5134963;27;20444;-59
2022/03/29 12:27:04;;;;;;;23.03;20.47;;;20.40;36.30;;;;;;5133878;27;20444;-59
2022/03/29 12:29:31;;;;;;;22.80;20.13;;;20.30;36.40;;;;;;5134989;27;20567;-59
2022/03/29 12:32:05;;;;;;;21.23;19.03;;;20.10;36.90;;;;;;5135072;27;20446;-59
2022/03/29 12:34:34;;;;;;;23.37;21.03;;;20.10;37.50;;;;;;5135010;27;20451;-59
2022/03/29 12:37:03;;;;;;;22.60;20.30;;;19.90;38.30;;;;;;5134866;27;20456;-59
2022/03/29 12:39:34;;;;;;;23.00;20.07;;;19.90;38.30;;;;;;5134910;27;20543;-59
2022/03/29 12:42:01;;;;;;;20.10;17.93;;;20.10;39.30;;;;;;5133298;27;20441;-59
2022/03/29 12:44:31;;;;;;;21.67;17.80;;;20.20;37.90;;;;;;5134737;27;20444;-59
2022/03/29 12:47:00;;;;;;;22.70;19.50;;;20.30;37.60;;;;;;5134608;27;20571;-59
2022/03/29 12:49:29;;;;;;;21.73;19.43;;;20.40;37.20;;;;;;5134682;27;20447;-60